sensor_id;sensor_type;location;lat;lon;timestamp;pressure;altitude;pressure_sealevel;temperature;humidity
61039;BME280;46919;45.816;3.104;2022-08-01T00:01:33;98060.06;;;23.25;46.45
61039;BME280;46919;45.816;3.104;2022-08-01T00:03:59;98049.84;;;23.26;45.99
61039;BME280;46919;45.816;3.104;2022-08-01T00:06:25;98054.84;;;23.24;46.59
61039;BME280;46919;45.816;3.104;2022-08-01T00:08:50;98050.75;;;23.21;46.34
61039;BME280;46919;45.816;3.104;2022-08-01T00:11:16;98043.09;;;23.18;46.60
61039;BME280;46919;45.816;3.104;2022-08-01T00:13:42;98039.66;;;23.07;46.94
61039;BME280;46919;45.816;3.104;2022-08-01T00:16:07;98049.16;;;23.01;47.04
61039;BME280;46919;45.816;3.104;2022-08-01T00:18:33;98041.72;;;23.02;47.41
61039;BME280;46919;45.816;3.104;2022-08-01T00:20:59;98045.59;;;23.01;47.64
61039;BME280;46919;45.816;3.104;2022-08-01T00:23:24;98039.13;;;22.91;47.92
61039;BME280;46919;45.816;3.104;2022-08-01T00:25:50;98043.03;;;22.90;48.06
61039;BME280;46919;45.816;3.104;2022-08-01T00:28:15;98039.13;;;22.91;48.22
61039;BME280;46919;45.816;3.104;2022-08-01T00:30:41;98038.72;;;22.84;48.50
61039;BME280;46919;45.816;3.104;2022-08-01T00:33:06;98040.66;;;22.65;48.69
61039;BME280;46919;45.816;3.104;2022-08-01T00:35:32;98039.94;;;22.59;49.34
61039;BME280;46919;45.816;3.104;2022-08-01T00:37:57;98037.72;;;22.42;49.62
61039;BME280;46919;45.816;3.104;2022-08-01T00:40:23;98032.00;;;22.38;50.12
61039;BME280;46919;45.816;3.104;2022-08-01T00:42:48;98029.22;;;22.19;50.39
61039;BME280;46919;45.816;3.104;2022-08-01T00:45:14;98033.84;;;22.05;50.28
61039;BME280;46919;45.816;3.104;2022-08-01T00:47:39;98027.44;;;21.91;50.75
61039;BME280;46919;45.816;3.104;2022-08-01T00:50:05;98030.38;;;21.75;51.19
61039;BME280;46919;45.816;3.104;2022-08-01T00:52:32;98020.19;;;21.76;51.64
61039;BME280;46919;45.816;3.104;2022-08-01T00:54:58;98036.81;;;21.65;51.88
61039;BME280;46919;45.816;3.104;2022-08-01T00:57:23;98025.69;;;21.51;52.24
61039;BME280;46919;45.816;3.104;2022-08-01T00:59:49;98035.16;;;21.40;52.51
61039;BME280;46919;45.816;3.104;2022-08-01T01:02:14;98029.72;;;21.35;52.73
61039;BME280;46919;45.816;3.104;2022-08-01T01:04:42;98036.84;;;21.36;52.83
61039;BME280;46919;45.816;3.104;2022-08-01T01:07:21;98031.75;;;21.24;53.77
61039;BME280;46919;45.816;3.104;2022-08-01T01:12:36;98024.53;;;21.04;54.03
61039;BME280;46919;45.816;3.104;2022-08-01T01:15:36;98022.19;;;20.92;54.35
61039;BME280;46919;45.816;3.104;2022-08-01T01:18:34;98035.19;;;20.81;54.41
61039;BME280;46919;45.816;3.104;2022-08-01T01:24:20;98030.94;;;20.65;55.14
61039;BME280;46919;45.816;3.104;2022-08-01T01:26:52;98033.69;;;20.65;55.23
61039;BME280;46919;45.816;3.104;2022-08-01T01:29:41;98027.72;;;20.53;55.95
61039;BME280;46919;45.816;3.104;2022-08-01T01:32:20;98022.28;;;20.42;56.01
61039;BME280;46919;45.816;3.104;2022-08-01T01:34:50;98024.53;;;20.35;56.15
61039;BME280;46919;45.816;3.104;2022-08-01T01:37:19;98020.72;;;20.31;56.28
61039;BME280;46919;45.816;3.104;2022-08-01T01:39:48;98025.16;;;20.27;56.53
61039;BME280;46919;45.816;3.104;2022-08-01T01:42:16;98016.22;;;20.45;56.62
61039;BME280;46919;45.816;3.104;2022-08-01T01:44:43;98025.81;;;20.48;56.68
61039;BME280;46919;45.816;3.104;2022-08-01T01:47:12;98023.69;;;20.40;56.57
61039;BME280;46919;45.816;3.104;2022-08-01T01:49:38;98022.41;;;20.22;57.02
61039;BME280;46919;45.816;3.104;2022-08-01T01:52:06;98021.41;;;20.07;57.19
61039;BME280;46919;45.816;3.104;2022-08-01T01:54:39;98025.56;;;20.00;57.66
61039;BME280;46919;45.816;3.104;2022-08-01T01:57:06;98020.94;;;20.00;57.68
61039;BME280;46919;45.816;3.104;2022-08-01T01:59:36;98020.84;;;20.11;57.83
61039;BME280;46919;45.816;3.104;2022-08-01T02:02:04;98013.13;;;20.18;57.90
61039;BME280;46919;45.816;3.104;2022-08-01T02:04:30;98009.88;;;20.11;58.19
61039;BME280;46919;45.816;3.104;2022-08-01T02:06:58;98013.53;;;19.96;58.52
61039;BME280;46919;45.816;3.104;2022-08-01T02:09:24;98005.97;;;19.77;58.98
61039;BME280;46919;45.816;3.104;2022-08-01T02:11:53;98007.06;;;19.71;59.15
61039;BME280;46919;45.816;3.104;2022-08-01T02:14:19;98013.41;;;19.61;59.64
61039;BME280;46919;45.816;3.104;2022-08-01T02:16:48;98010.69;;;19.56;59.85
61039;BME280;46919;45.816;3.104;2022-08-01T02:19:17;98012.63;;;19.50;59.99
61039;BME280;46919;45.816;3.104;2022-08-01T02:21:57;98014.56;;;19.45;60.29
61039;BME280;46919;45.816;3.104;2022-08-01T02:24:42;98017.63;;;19.33;60.76
61039;BME280;46919;45.816;3.104;2022-08-01T02:27:14;98011.31;;;19.32;60.71
61039;BME280;46919;45.816;3.104;2022-08-01T02:29:44;98005.88;;;19.27;60.87
61039;BME280;46919;45.816;3.104;2022-08-01T02:32:23;98009.69;;;19.26;60.97
61039;BME280;46919;45.816;3.104;2022-08-01T02:34:51;98003.69;;;19.24;60.98
61039;BME280;46919;45.816;3.104;2022-08-01T02:37:17;97998.19;;;19.19;60.83
61039;BME280;46919;45.816;3.104;2022-08-01T02:39:47;98021.25;;;19.13;61.32
61039;BME280;46919;45.816;3.104;2022-08-01T02:42:14;98013.00;;;19.08;61.48
61039;BME280;46919;45.816;3.104;2022-08-01T02:44:42;98017.16;;;19.05;61.56
61039;BME280;46919;45.816;3.104;2022-08-01T02:47:09;98015.50;;;18.99;61.91
61039;BME280;46919;45.816;3.104;2022-08-01T02:49:39;98015.25;;;19.00;62.12
61039;BME280;46919;45.816;3.104;2022-08-01T02:52:08;98008.66;;;19.07;61.86
61039;BME280;46919;45.816;3.104;2022-08-01T02:54:36;98017.38;;;19.14;61.66
61039;BME280;46919;45.816;3.104;2022-08-01T02:57:03;98014.94;;;19.07;61.85
61039;BME280;46919;45.816;3.104;2022-08-01T02:59:29;98007.84;;;19.01;61.92
61039;BME280;46919;45.816;3.104;2022-08-01T03:01:57;98011.97;;;18.88;62.77
61039;BME280;46919;45.816;3.104;2022-08-01T03:04:24;98019.91;;;18.79;63.10
61039;BME280;46919;45.816;3.104;2022-08-01T03:06:52;98008.41;;;18.72;63.61
61039;BME280;46919;45.816;3.104;2022-08-01T03:09:19;98000.16;;;18.62;63.77
61039;BME280;46919;45.816;3.104;2022-08-01T03:11:46;98005.66;;;18.62;63.58
61039;BME280;46919;45.816;3.104;2022-08-01T03:14:14;97997.72;;;18.65;63.91
61039;BME280;46919;45.816;3.104;2022-08-01T03:16:41;97996.06;;;18.70;63.90
61039;BME280;46919;45.816;3.104;2022-08-01T03:19:09;98005.38;;;18.63;63.90
61039;BME280;46919;45.816;3.104;2022-08-01T03:21:38;97996.34;;;18.47;64.76
61039;BME280;46919;45.816;3.104;2022-08-01T03:24:05;97991.69;;;18.38;64.99
61039;BME280;46919;45.816;3.104;2022-08-01T03:26:33;97999.91;;;18.27;65.26
61039;BME280;46919;45.816;3.104;2022-08-01T03:29:04;97989.78;;;18.23;65.39
61039;BME280;46919;45.816;3.104;2022-08-01T03:31:36;97989.78;;;18.28;65.42
61039;BME280;46919;45.816;3.104;2022-08-01T03:34:04;97989.50;;;18.29;65.32
61039;BME280;46919;45.816;3.104;2022-08-01T03:36:32;97982.13;;;18.30;65.16
61039;BME280;46919;45.816;3.104;2022-08-01T03:39:02;97987.31;;;18.21;65.43
61039;BME280;46919;45.816;3.104;2022-08-01T03:41:32;97988.97;;;18.22;65.13
61039;BME280;46919;45.816;3.104;2022-08-01T03:44:05;97979.09;;;18.26;65.27
61039;BME280;46919;45.816;3.104;2022-08-01T03:46:33;97981.28;;;18.14;65.81
61039;BME280;46919;45.816;3.104;2022-08-01T03:49:05;97990.56;;;18.03;65.93
61039;BME280;46919;45.816;3.104;2022-08-01T03:51:33;97987.84;;;17.98;66.16
61039;BME280;46919;45.816;3.104;2022-08-01T03:54:00;97982.38;;;17.98;66.01
61039;BME280;46919;45.816;3.104;2022-08-01T03:56:27;97986.19;;;17.97;66.50
61039;BME280;46919;45.816;3.104;2022-08-01T03:58:56;97985.63;;;17.89;66.77
61039;BME280;46919;45.816;3.104;2022-08-01T04:01:22;97989.97;;;17.85;66.72
61039;BME280;46919;45.816;3.104;2022-08-01T04:03:48;97986.69;;;17.83;66.43
61039;BME280;46919;45.816;3.104;2022-08-01T04:06:13;97994.88;;;17.78;66.99
61039;BME280;46919;45.816;3.104;2022-08-01T04:08:40;97992.19;;;17.88;66.86
61039;BME280;46919;45.816;3.104;2022-08-01T04:11:08;97984.25;;;17.92;66.86
61039;BME280;46919;45.816;3.104;2022-08-01T04:13:34;97985.03;;;17.82;67.18
61039;BME280;46919;45.816;3.104;2022-08-01T04:15:59;97993.47;;;17.65;67.86
61039;BME280;46919;45.816;3.104;2022-08-01T04:18:25;97993.69;;;17.53;68.42
61039;BME280;46919;45.816;3.104;2022-08-01T04:20:51;97996.69;;;17.52;68.39
61039;BME280;46919;45.816;3.104;2022-08-01T04:23:20;97994.22;;;17.50;67.96
61039;BME280;46919;45.816;3.104;2022-08-01T04:25:48;97992.88;;;17.53;68.20
61039;BME280;46919;45.816;3.104;2022-08-01T04:28:15;97998.88;;;17.50;68.42
61039;BME280;46919;45.816;3.104;2022-08-01T04:30:43;97999.94;;;17.44;68.60
61039;BME280;46919;45.816;3.104;2022-08-01T04:33:11;98000.75;;;17.39;68.61
61039;BME280;46919;45.816;3.104;2022-08-01T04:35:40;98000.19;;;17.42;68.52
61039;BME280;46919;45.816;3.104;2022-08-01T04:38:08;97999.94;;;17.44;68.42
61039;BME280;46919;45.816;3.104;2022-08-01T04:40:35;98001.28;;;17.41;68.64
61039;BME280;46919;45.816;3.104;2022-08-01T04:43:02;98010.88;;;17.44;68.80
61039;BME280;46919;45.816;3.104;2022-08-01T04:45:28;98016.31;;;17.38;68.73
61039;BME280;46919;45.816;3.104;2022-08-01T04:47:54;98012.47;;;17.39;68.95
61039;BME280;46919;45.816;3.104;2022-08-01T04:50:22;98010.59;;;17.40;68.90
61039;BME280;46919;45.816;3.104;2022-08-01T04:52:48;98013.88;;;17.42;68.89
61039;BME280;46919;45.816;3.104;2022-08-01T04:55:13;98016.09;;;17.50;68.73
61039;BME280;46919;45.816;3.104;2022-08-01T04:57:40;98015.59;;;17.64;68.82
61039;BME280;46919;45.816;3.104;2022-08-01T05:00:08;98016.75;;;17.78;68.70
61039;BME280;46919;45.816;3.104;2022-08-01T05:02:34;98029.41;;;18.00;67.82
61039;BME280;46919;45.816;3.104;2022-08-01T05:04:59;98030.19;;;17.90;68.14
61039;BME280;46919;45.816;3.104;2022-08-01T05:07:25;98029.56;;;17.72;68.86
61039;BME280;46919;45.816;3.104;2022-08-01T05:09:50;98035.28;;;17.71;69.34
61039;BME280;46919;45.816;3.104;2022-08-01T05:12:16;98033.09;;;17.68;69.43
61039;BME280;46919;45.816;3.104;2022-08-01T05:14:42;98032.56;;;17.71;69.01
61039;BME280;46919;45.816;3.104;2022-08-01T05:17:08;98032.03;;;17.74;68.85
61039;BME280;46919;45.816;3.104;2022-08-01T05:19:38;98038.34;;;17.80;69.06
61039;BME280;46919;45.816;3.104;2022-08-01T05:22:06;98043.28;;;17.83;68.98
61039;BME280;46919;45.816;3.104;2022-08-01T05:24:33;98040.84;;;17.91;68.96
61039;BME280;46919;45.816;3.104;2022-08-01T05:26:59;98046.38;;;18.02;68.88
61039;BME280;46919;45.816;3.104;2022-08-01T05:29:25;98044.72;;;18.11;68.73
61039;BME280;46919;45.816;3.104;2022-08-01T05:31:52;98051.91;;;18.22;68.98
61039;BME280;46919;45.816;3.104;2022-08-01T05:34:18;98052.16;;;18.31;68.75
61039;BME280;46919;45.816;3.104;2022-08-01T05:36:43;98050.28;;;18.37;68.45
61039;BME280;46919;45.816;3.104;2022-08-01T05:39:09;98047.81;;;18.45;68.24
61039;BME280;46919;45.816;3.104;2022-08-01T05:41:35;98053.28;;;18.66;67.94
61039;BME280;46919;45.816;3.104;2022-08-01T05:44:04;98050.84;;;18.85;67.69
61039;BME280;46919;45.816;3.104;2022-08-01T05:46:30;98054.94;;;19.08;66.53
61039;BME280;46919;45.816;3.104;2022-08-01T05:48:59;98052.72;;;19.26;65.98
61039;BME280;46919;45.816;3.104;2022-08-01T05:51:25;98056.03;;;19.23;65.98
61039;BME280;46919;45.816;3.104;2022-08-01T05:53:51;98056.31;;;19.16;65.88
61039;BME280;46919;45.816;3.104;2022-08-01T05:56:16;98056.03;;;19.17;66.24
61039;BME280;46919;45.816;3.104;2022-08-01T05:58:41;98054.09;;;19.18;66.18
61039;BME280;46919;45.816;3.104;2022-08-01T06:01:07;98056.03;;;19.17;65.52
61039;BME280;46919;45.816;3.104;2022-08-01T06:03:32;98056.84;;;19.18;65.76
61039;BME280;46919;45.816;3.104;2022-08-01T06:06:01;98057.38;;;19.20;65.23
61039;BME280;46919;45.816;3.104;2022-08-01T06:08:26;98064.50;;;19.21;64.91
61039;BME280;46919;45.816;3.104;2022-08-01T06:10:52;98057.63;;;19.24;65.23
61039;BME280;46919;45.816;3.104;2022-08-01T06:13:18;98065.59;;;19.30;64.70
61039;BME280;46919;45.816;3.104;2022-08-01T06:15:44;98063.13;;;19.34;64.52
61039;BME280;46919;45.816;3.104;2022-08-01T06:18:10;98069.13;;;19.36;64.13
61039;BME280;46919;45.816;3.104;2022-08-01T06:20:39;98055.44;;;19.36;64.13
61039;BME280;46919;45.816;3.104;2022-08-01T06:23:04;98065.84;;;19.39;63.80
61039;BME280;46919;45.816;3.104;2022-08-01T06:25:30;98056.19;;;19.52;63.53
61039;BME280;46919;45.816;3.104;2022-08-01T06:27:56;98043.28;;;19.63;63.06
61039;BME280;46919;45.816;3.104;2022-08-01T06:30:21;98044.88;;;19.74;63.03
61039;BME280;46919;45.816;3.104;2022-08-01T06:32:47;98040.75;;;19.82;62.42
61039;BME280;46919;45.816;3.104;2022-08-01T06:35:13;98046.78;;;19.89;62.34
61039;BME280;46919;45.816;3.104;2022-08-01T06:37:39;98045.34;;;19.97;62.23
61039;BME280;46919;45.816;3.104;2022-08-01T06:40:07;98037.63;;;20.04;62.06
61039;BME280;46919;45.816;3.104;2022-08-01T06:42:33;98043.03;;;20.14;61.63
61039;BME280;46919;45.816;3.104;2022-08-01T06:45:09;98034.47;;;20.26;61.26
61039;BME280;46919;45.816;3.104;2022-08-01T06:47:35;98040.47;;;20.33;60.60
61039;BME280;46919;45.816;3.104;2022-08-01T06:50:01;98035.16;;;20.47;60.08
61039;BME280;46919;45.816;3.104;2022-08-01T06:52:28;98041.44;;;20.53;59.96
61039;BME280;46919;45.816;3.104;2022-08-01T06:54:53;98038.06;;;20.61;60.23
61039;BME280;46919;45.816;3.104;2022-08-01T06:57:18;98039.13;;;20.70;60.12
61039;BME280;46919;45.816;3.104;2022-08-01T06:59:44;98037.41;;;20.79;59.34
61039;BME280;46919;45.816;3.104;2022-08-01T07:02:09;98039.00;;;20.86;59.18
61039;BME280;46919;45.816;3.104;2022-08-01T07:04:35;98035.38;;;20.90;59.03
61039;BME280;46919;45.816;3.104;2022-08-01T07:07:00;98035.34;;;20.95;58.83
61039;BME280;46919;45.816;3.104;2022-08-01T07:09:26;98034.72;;;21.04;58.54
61039;BME280;46919;45.816;3.104;2022-08-01T07:11:52;98031.84;;;21.14;57.80
61039;BME280;46919;45.816;3.104;2022-08-01T07:14:18;98039.19;;;21.24;57.23
61039;BME280;46919;45.816;3.104;2022-08-01T07:16:44;98042.41;;;21.31;57.37
61039;BME280;46919;45.816;3.104;2022-08-01T07:19:10;98046.22;;;21.35;57.52
61039;BME280;46919;45.816;3.104;2022-08-01T07:21:35;98050.84;;;21.40;57.78
61039;BME280;46919;45.816;3.104;2022-08-01T07:24:01;98048.53;;;21.47;57.64
61039;BME280;46919;45.816;3.104;2022-08-01T07:26:26;98046.91;;;21.51;57.10
61039;BME280;46919;45.816;3.104;2022-08-01T07:28:52;98041.84;;;21.58;56.76
61039;BME280;46919;45.816;3.104;2022-08-01T07:31:18;98038.72;;;21.65;56.42
61039;BME280;46919;45.816;3.104;2022-08-01T07:33:43;98046.28;;;21.78;55.72
61039;BME280;46919;45.816;3.104;2022-08-01T07:36:09;98048.91;;;21.88;55.66
61039;BME280;46919;45.816;3.104;2022-08-01T07:38:34;98041.09;;;21.96;55.15
61039;BME280;46919;45.816;3.104;2022-08-01T07:40:59;98035.44;;;22.06;54.58
61039;BME280;46919;45.816;3.104;2022-08-01T07:43:25;98043.28;;;22.18;55.01
61039;BME280;46919;45.816;3.104;2022-08-01T07:45:50;98041.84;;;22.20;54.80
61039;BME280;46919;45.816;3.104;2022-08-01T07:48:16;98042.69;;;22.21;54.66
61039;BME280;46919;45.816;3.104;2022-08-01T07:50:41;98045.59;;;22.30;54.25
61039;BME280;46919;45.816;3.104;2022-08-01T07:53:06;98044.41;;;22.36;54.30
61039;BME280;46919;45.816;3.104;2022-08-01T07:55:32;98050.38;;;22.43;53.64
61039;BME280;46919;45.816;3.104;2022-08-01T07:57:57;98044.72;;;22.53;53.44
61039;BME280;46919;45.816;3.104;2022-08-01T08:00:23;98043.97;;;22.67;53.25
61039;BME280;46919;45.816;3.104;2022-08-01T08:02:48;98041.03;;;22.77;52.90
61039;BME280;46919;45.816;3.104;2022-08-01T08:05:14;98037.56;;;22.85;52.45
61039;BME280;46919;45.816;3.104;2022-08-01T08:07:39;98043.44;;;22.97;52.06
61039;BME280;46919;45.816;3.104;2022-08-01T08:10:05;98029.22;;;23.09;51.69
61039;BME280;46919;45.816;3.104;2022-08-01T08:12:31;98029.13;;;23.28;51.28
61039;BME280;46919;45.816;3.104;2022-08-01T08:14:57;98032.59;;;23.48;50.35
61039;BME280;46919;45.816;3.104;2022-08-01T08:17:26;98027.72;;;23.59;50.33
61039;BME280;46919;45.816;3.104;2022-08-01T08:19:52;98038.44;;;23.60;50.14
61039;BME280;46919;45.816;3.104;2022-08-01T08:22:18;98042.31;;;23.59;50.68
61039;BME280;46919;45.816;3.104;2022-08-01T08:24:44;98037.53;;;23.65;50.14
61039;BME280;46919;45.816;3.104;2022-08-01T08:27:09;98038.53;;;23.83;49.83
61039;BME280;46919;45.816;3.104;2022-08-01T08:29:35;98037.22;;;23.94;49.28
61039;BME280;46919;45.816;3.104;2022-08-01T08:32:01;98036.03;;;24.09;48.86
61039;BME280;46919;45.816;3.104;2022-08-01T08:34:27;98037.78;;;24.19;48.65
61039;BME280;46919;45.816;3.104;2022-08-01T08:36:53;98036.00;;;24.23;49.07
61039;BME280;46919;45.816;3.104;2022-08-01T08:39:20;98035.66;;;24.38;48.76
61039;BME280;46919;45.816;3.104;2022-08-01T08:41:46;98035.41;;;24.49;48.62
61039;BME280;46919;45.816;3.104;2022-08-01T08:44:12;98024.84;;;24.65;47.68
61039;BME280;46919;45.816;3.104;2022-08-01T08:46:46;98032.25;;;24.78;47.84
61039;BME280;46919;45.816;3.104;2022-08-01T08:49:16;98034.56;;;24.85;48.11
61039;BME280;46919;45.816;3.104;2022-08-01T08:51:42;98031.75;;;24.99;47.50
61039;BME280;46919;45.816;3.104;2022-08-01T08:54:11;98028.84;;;25.04;47.09
61039;BME280;46919;45.816;3.104;2022-08-01T08:56:38;98034.06;;;25.05;46.83
61039;BME280;46919;45.816;3.104;2022-08-01T08:59:03;98035.56;;;25.11;46.79
61039;BME280;46919;45.816;3.104;2022-08-01T09:01:31;98037.69;;;25.14;47.04
61039;BME280;46919;45.816;3.104;2022-08-01T09:03:57;98032.81;;;25.20;46.67
61039;BME280;46919;45.816;3.104;2022-08-01T09:06:24;98030.50;;;25.36;46.40
61039;BME280;46919;45.816;3.104;2022-08-01T09:08:49;98035.44;;;25.48;45.94
61039;BME280;46919;45.816;3.104;2022-08-01T09:11:15;98034.47;;;25.53;46.18
61039;BME280;46919;45.816;3.104;2022-08-01T09:13:41;98031.91;;;25.65;46.05
61039;BME280;46919;45.816;3.104;2022-08-01T09:16:06;98035.00;;;25.72;46.18
61039;BME280;46919;45.816;3.104;2022-08-01T09:18:39;98031.97;;;25.82;45.68
61039;BME280;46919;45.816;3.104;2022-08-01T09:21:18;98028.75;;;25.98;45.06
61039;BME280;46919;45.816;3.104;2022-08-01T09:23:49;98036.53;;;25.96;44.89
61039;BME280;46919;45.816;3.104;2022-08-01T09:26:20;98024.84;;;25.99;44.41
61039;BME280;46919;45.816;3.104;2022-08-01T09:28:47;98030.25;;;26.13;44.84
61039;BME280;46919;45.816;3.104;2022-08-01T09:31:17;98031.72;;;26.28;44.84
61039;BME280;46919;45.816;3.104;2022-08-01T09:36:20;98022.78;;;26.31;44.22
61039;BME280;46919;45.816;3.104;2022-08-01T09:38:45;98028.31;;;26.48;43.45
61039;BME280;46919;45.816;3.104;2022-08-01T09:41:11;98031.41;;;26.55;43.59
61039;BME280;46919;45.816;3.104;2022-08-01T09:43:37;98030.78;;;26.58;43.37
61039;BME280;46919;45.816;3.104;2022-08-01T09:46:09;98030.13;;;26.79;42.97
61039;BME280;46919;45.816;3.104;2022-08-01T09:48:38;98028.78;;;27.03;42.66
61039;BME280;46919;45.816;3.104;2022-08-01T09:51:07;98029.72;;;27.07;42.22
61039;BME280;46919;45.816;3.104;2022-08-01T09:53:48;98021.44;;;26.98;42.39
61039;BME280;46919;45.816;3.104;2022-08-01T09:56:14;98035.41;;;27.19;42.27
61039;BME280;46919;45.816;3.104;2022-08-01T09:58:52;98033.09;;;27.30;42.37
61039;BME280;46919;45.816;3.104;2022-08-01T10:01:20;98025.41;;;27.44;41.54
61039;BME280;46919;45.816;3.104;2022-08-01T10:03:46;98031.81;;;27.36;41.09
61039;BME280;46919;45.816;3.104;2022-08-01T10:06:20;98022.50;;;27.41;40.93
61039;BME280;46919;45.816;3.104;2022-08-01T10:08:47;98027.38;;;27.35;41.11
61039;BME280;46919;45.816;3.104;2022-08-01T10:11:13;98018.06;;;27.40;41.42
61039;BME280;46919;45.816;3.104;2022-08-01T10:13:39;98012.25;;;27.62;40.89
61039;BME280;46919;45.816;3.104;2022-08-01T10:16:05;98013.72;;;27.98;39.85
61039;BME280;46919;45.816;3.104;2022-08-01T10:18:33;98015.59;;;28.07;40.25
61039;BME280;46919;45.816;3.104;2022-08-01T10:21:00;98011.69;;;28.08;40.16
61039;BME280;46919;45.816;3.104;2022-08-01T10:23:26;98003.94;;;28.13;40.21
61039;BME280;46919;45.816;3.104;2022-08-01T10:25:55;98006.47;;;28.06;40.53
61039;BME280;46919;45.816;3.104;2022-08-01T10:28:24;98003.00;;;28.30;40.13
61039;BME280;46919;45.816;3.104;2022-08-01T10:30:51;98000.88;;;28.48;39.41
61039;BME280;46919;45.816;3.104;2022-08-01T10:33:17;97996.91;;;28.37;38.59
61039;BME280;46919;45.816;3.104;2022-08-01T10:35:45;97995.41;;;28.40;39.84
61039;BME280;46919;45.816;3.104;2022-08-01T10:38:11;97986.13;;;28.35;39.09
61039;BME280;46919;45.816;3.104;2022-08-01T10:40:37;97980.28;;;28.49;39.33
61039;BME280;46919;45.816;3.104;2022-08-01T10:43:03;97979.94;;;28.51;38.69
61039;BME280;46919;45.816;3.104;2022-08-01T10:45:29;97974.50;;;28.76;38.83
61039;BME280;46919;45.816;3.104;2022-08-01T10:47:59;97974.19;;;28.89;38.65
61039;BME280;46919;45.816;3.104;2022-08-01T10:50:35;97967.13;;;28.92;38.01
61039;BME280;46919;45.816;3.104;2022-08-01T10:53:06;97965.88;;;29.02;38.04
61039;BME280;46919;45.816;3.104;2022-08-01T10:55:57;97977.81;;;29.15;38.70
61039;BME280;46919;45.816;3.104;2022-08-01T10:58:28;97960.94;;;29.20;37.17
61039;BME280;46919;45.816;3.104;2022-08-01T11:01:14;97955.84;;;29.47;37.59
61039;BME280;46919;45.816;3.104;2022-08-01T11:03:41;97960.59;;;29.58;37.60
61039;BME280;46919;45.816;3.104;2022-08-01T11:06:15;97955.63;;;29.52;36.88
61039;BME280;46919;45.816;3.104;2022-08-01T11:08:41;97953.53;;;29.36;36.68
61039;BME280;46919;45.816;3.104;2022-08-01T11:11:07;97946.91;;;29.41;37.40
61039;BME280;46919;45.816;3.104;2022-08-01T11:16:41;97943.31;;;29.65;37.14
61039;BME280;46919;45.816;3.104;2022-08-01T11:19:07;97941.31;;;29.90;36.78
61039;BME280;46919;45.816;3.104;2022-08-01T11:27:30;97931.31;;;30.30;36.13
61039;BME280;46919;45.816;3.104;2022-08-01T11:32:38;97924.91;;;30.42;35.49
61039;BME280;46919;45.816;3.104;2022-08-01T11:35:10;97921.53;;;30.36;34.84
61039;BME280;46919;45.816;3.104;2022-08-01T11:37:36;97923.84;;;30.46;34.93
61039;BME280;46919;45.816;3.104;2022-08-01T11:40:18;97921.34;;;30.57;34.68
61039;BME280;46919;45.816;3.104;2022-08-01T11:42:44;97912.97;;;30.57;34.96
61039;BME280;46919;45.816;3.104;2022-08-01T11:45:10;97921.56;;;30.80;35.23
61039;BME280;46919;45.816;3.104;2022-08-01T11:47:49;97923.50;;;31.08;34.72
61039;BME280;46919;45.816;3.104;2022-08-01T11:50:30;97920.78;;;31.28;33.86
61039;BME280;46919;45.816;3.104;2022-08-01T11:53:06;97911.06;;;31.53;33.08
61039;BME280;46919;45.816;3.104;2022-08-01T11:55:32;97913.31;;;31.83;33.03
61039;BME280;46919;45.816;3.104;2022-08-01T11:58:05;97912.78;;;32.13;32.44
61039;BME280;46919;45.816;3.104;2022-08-01T12:00:31;97905.19;;;32.33;32.75
61039;BME280;46919;45.816;3.104;2022-08-01T12:03:07;97899.63;;;32.56;31.34
61039;BME280;46919;45.816;3.104;2022-08-01T12:05:35;97910.31;;;32.70;31.91
61039;BME280;46919;45.816;3.104;2022-08-01T12:08:03;97914.47;;;32.37;31.82
61039;BME280;46919;45.816;3.104;2022-08-01T12:10:32;97901.78;;;32.43;32.32
61039;BME280;46919;45.816;3.104;2022-08-01T12:13:04;97906.13;;;32.60;32.05
61039;BME280;46919;45.816;3.104;2022-08-01T12:15:35;97908.88;;;32.80;31.63
61039;BME280;46919;45.816;3.104;2022-08-01T12:18:02;97897.34;;;33.04;31.64
61039;BME280;46919;45.816;3.104;2022-08-01T12:20:34;97898.03;;;33.48;31.22
61039;BME280;46919;45.816;3.104;2022-08-01T12:23:01;97895.50;;;33.66;31.63
61039;BME280;46919;45.816;3.104;2022-08-01T12:25:28;97894.84;;;33.49;31.02
61039;BME280;46919;45.816;3.104;2022-08-01T12:27:53;97885.56;;;32.95;31.65
61039;BME280;46919;45.816;3.104;2022-08-01T12:30:21;97881.72;;;33.03;31.15
61039;BME280;46919;45.816;3.104;2022-08-01T12:32:51;97877.09;;;33.15;31.19
61039;BME280;46919;45.816;3.104;2022-08-01T12:35:22;97874.28;;;33.65;30.46
61039;BME280;46919;45.816;3.104;2022-08-01T12:37:50;97873.78;;;33.86;30.91
61039;BME280;46919;45.816;3.104;2022-08-01T12:40:18;97873.81;;;34.20;30.03
61039;BME280;46919;45.816;3.104;2022-08-01T12:42:46;97864.34;;;34.69;29.43
61039;BME280;46919;45.816;3.104;2022-08-01T12:45:14;97873.41;;;34.93;29.52
61039;BME280;46919;45.816;3.104;2022-08-01T12:47:41;97874.31;;;35.08;28.40
61039;BME280;46919;45.816;3.104;2022-08-01T12:50:18;97857.75;;;34.95;27.02
61039;BME280;46919;45.816;3.104;2022-08-01T12:52:45;97866.94;;;34.89;28.07
61039;BME280;46919;45.816;3.104;2022-08-01T12:55:18;97859.50;;;34.66;28.02
61039;BME280;46919;45.816;3.104;2022-08-01T12:57:47;97863.56;;;34.01;27.97
61039;BME280;46919;45.816;3.104;2022-08-01T13:00:25;97857.06;;;33.93;27.67
61039;BME280;46919;45.816;3.104;2022-08-01T13:03:15;97856.38;;;33.73;28.64
61039;BME280;46919;45.816;3.104;2022-08-01T13:05:42;97853.22;;;33.48;29.08
61039;BME280;46919;45.816;3.104;2022-08-01T13:08:16;97863.19;;;33.18;29.74
61039;BME280;46919;45.816;3.104;2022-08-01T13:10:42;97860.03;;;33.47;29.27
61039;BME280;46919;45.816;3.104;2022-08-01T13:13:09;97847.72;;;33.82;28.75
61039;BME280;46919;45.816;3.104;2022-08-01T13:15:37;97849.97;;;34.03;29.07
61039;BME280;46919;45.816;3.104;2022-08-01T13:18:26;97850.75;;;34.03;28.34
61039;BME280;46919;45.816;3.104;2022-08-01T13:26:46;97852.47;;;34.11;27.87
61039;BME280;46919;45.816;3.104;2022-08-01T13:29:28;97848.19;;;33.91;28.65
61039;BME280;46919;45.816;3.104;2022-08-01T13:31:53;97855.16;;;34.35;28.20